Time;durP1;ratioP1;P1;durP2;ratioP2;P2;SDS_P1;SDS_P2;PMS_P1;PMS_P2;Temp;Humidity;BMP_temperature;BMP_pressure;BME280_temperature;BME280_humidity;BME280_pressure;Samples;Min_cycle;Max_cycle;Signal;HPM_P1;HPM_P2
2022/03/17 00:00:29;;;;;;;;;;;;;;;;;;1911406;28;7009;-65
2022/03/17 00:01:26;;;;;;;;;;;;;;;;;;1911408;28;7042;-65
2022/03/17 00:02:24;;;;;;;;;;;;;;;;;;1911415;28;7029;-65
2022/03/17 00:03:21;;;;;;;;;;;;;;;;;;1911389;28;7124;-67
2022/03/17 00:04:21;;;;;;;;;;;;;;;;;;1911819;28;7116;-65
2022/03/17 00:05:19;;;;;;;;;;;;;;;;;;1911508;28;7113;-65
2022/03/17 00:06:17;;;;;;;;;;;;;;;;;;1911437;28;7041;-67
2022/03/17 00:07:14;;;;;;;;;;;;;;;;;;1911301;28;7116;-66
2022/03/17 00:08:12;;;;;;;;;;;;;;;;;;1910165;28;7092;-67
2022/03/17 00:09:09;;;;;;;;;;;;;;;;;;1910853;28;7113;-66
2022/03/17 00:10:09;;;;;;;;;;;;;;;;;;1911370;28;7005;-64
2022/03/17 00:11:06;;;;;;;;;;;;;;;;;;1910700;28;7038;-64
2022/03/17 00:12:05;;;;;;;;;;;;;;;;;;1910564;28;8019;-66
2022/03/17 00:13:02;;;;;;;;;;;;;;;;;;1911198;28;7041;-66
2022/03/17 00:14:01;;;;;;;;;;;;;;;;;;1903023;28;7101;-65
2022/03/17 00:14:59;;;;;;;;;;;;;;;;;;1903400;28;7142;-66
2022/03/17 00:15:57;;;;;;;;;;;;;;;;;;1910777;28;7116;-65
2022/03/17 00:16:54;;;;;;;;;;;;;;;;;;1911411;28;7088;-67
2022/03/17 00:17:53;;;;;;;;;;;;;;;;;;1911662;28;7117;-64
2022/03/17 00:18:51;;;;;;;;;;;;;;;;;;1911807;28;7009;-65
2022/03/17 00:19:51;;;;;;;;;;;;;;;;;;1911289;28;7041;-65
2022/03/17 00:20:48;;;;;;;;;;;;;;;;;;1911622;28;7402;-66
2022/03/17 00:21:45;;;;;;;;;;;;;;;;;;1910153;28;7096;-67
2022/03/17 00:22:43;;;;;;;;;;;;;;;;;;1911770;28;7041;-63
2022/03/17 00:23:40;;;;;;;;;;;;;;;;;;1911249;28;7271;-66
2022/03/17 00:24:38;;;;;;;;;;;;;;;;;;1911569;28;7088;-66
2022/03/17 00:25:35;;;;;;;;;;;;;;;;;;1909419;28;7104;-65
2022/03/17 00:26:34;;;;;;;;;;;;;;;;;;1910559;28;7013;-64
2022/03/17 00:27:32;;;;;;;;;;;;;;;;;;1910987;28;7308;-65
2022/03/17 00:28:30;;;;;;;;;;;;;;;;;;1911093;28;7013;-64
2022/03/17 00:29:30;;;;;;;;;;;;;;;;;;1911447;28;7444;-65
2022/03/17 00:30:27;;;;;;;;;;;;;;;;;;1911677;28;7295;-66
2022/03/17 00:31:24;;;;;;;;;;;;;;;;;;1911201;28;7085;-66
2022/03/17 00:32:23;;;;;;;;;;;;;;;;;;1911626;28;8079;-65
2022/03/17 00:33:20;;;;;;;;;;;;;;;;;;1903323;28;8129;-63
2022/03/17 00:34:18;;;;;;;;;;;;;;;;;;1897377;28;7144;-66
2022/03/17 00:36:34;;;;;;;;;;;;;;;;;;1911335;28;7038;-65
2022/03/17 00:37:31;;;;;;;;;;;;;;;;;;1910967;28;7017;-65
2022/03/17 00:38:30;;;;;;;;;;;;;;;;;;1911222;28;8047;-64
2022/03/17 00:39:28;;;;;;;;;;;;;;;;;;1909803;28;7148;-63
2022/03/17 00:40:26;;;;;;;;;;;;;;;;;;1910535;28;7092;-65
2022/03/17 00:41:23;;;;;;;;;;;;;;;;;;1911587;28;7204;-66
2022/03/17 00:42:21;;;;;;;;;;;;;;;;;;1911929;28;7005;-63
2022/03/17 00:43:22;;;;;;;;;;;;;;;;;;1911232;28;7120;-66
2022/03/17 00:44:20;;;;;;;;;;;;;;;;;;1910285;28;7084;-65
2022/03/17 00:45:17;;;;;;;;;;;;;;;;;;1910968;28;7066;-65
2022/03/17 00:46:15;;;;;;;;;;;;;;;;;;1910873;28;7017;-65
2022/03/17 00:47:13;;;;;;;;;;;;;;;;;;1910653;28;7164;-65
2022/03/17 00:48:11;;;;;;;;;;;;;;;;;;1911556;28;7104;-66
2022/03/17 00:49:08;;;;;;;;;;;;;;;;;;1911379;28;8096;-65
2022/03/17 00:50:07;;;;;;;;;;;;;;;;;;1911456;28;8054;-65
2022/03/17 00:51:05;;;;;;;;;;;;;;;;;;1910963;28;7013;-67
2022/03/17 00:52:02;;;;;;;;;;;;;;;;;;1911106;28;7319;-64
2022/03/17 00:53:00;;;;;;;;;;;;;;;;;;1911256;28;7013;-65
2022/03/17 00:53:57;;;;;;;;;;;;;;;;;;1909407;28;7088;-66
2022/03/17 00:54:55;;;;;;;;;;;;;;;;;;1911339;28;8027;-66
2022/03/17 00:55:52;;;;;;;;;;;;;;;;;;1911161;28;7014;-65
2022/03/17 00:56:50;;;;;;;;;;;;;;;;;;1911535;28;7009;-65
2022/03/17 00:57:47;;;;;;;;;;;;;;;;;;1911120;28;7096;-65
2022/03/17 00:58:46;;;;;;;;;;;;;;;;;;1911169;28;7040;-66
2022/03/17 00:59:44;;;;;;;;;;;;;;;;;;1910925;28;7140;-67
2022/03/17 01:00:41;;;;;;;;;;;;;;;;;;1910443;28;7096;-65
2022/03/17 01:01:39;;;;;;;;;;;;;;;;;;1910409;28;7451;-66
2022/03/17 01:02:37;;;;;;;;;;;;;;;;;;1911391;28;7013;-65
2022/03/17 01:03:35;;;;;;;;;;;;;;;;;;1910034;28;7042;-64
2022/03/17 01:04:34;;;;;;;;;;;;;;;;;;1911466;28;7025;-66
2022/03/17 01:05:31;;;;;;;;;;;;;;;;;;1911259;28;7046;-66
2022/03/17 01:06:29;;;;;;;;;;;;;;;;;;1911401;28;7142;-67
2022/03/17 01:07:26;;;;;;;;;;;;;;;;;;1911117;28;8003;-64
2022/03/17 01:08:23;;;;;;;;;;;;;;;;;;1910970;28;7050;-64
2022/03/17 01:09:21;;;;;;;;;;;;;;;;;;1910448;28;8767;-65
2022/03/17 01:10:18;;;;;;;;;;;;;;;;;;1911839;28;7046;-65
2022/03/17 01:11:16;;;;;;;;;;;;;;;;;;1906122;28;7042;-66
2022/03/17 01:12:13;;;;;;;;;;;;;;;;;;1902928;28;7045;-65
2022/03/17 01:13:11;;;;;;;;;;;;;;;;;;1909766;28;7397;-64
2022/03/17 01:14:09;;;;;;;;;;;;;;;;;;1910464;28;7189;-64
2022/03/17 01:15:06;;;;;;;;;;;;;;;;;;1911368;28;7084;-66
2022/03/17 01:16:04;;;;;;;;;;;;;;;;;;1911241;28;7134;-65
2022/03/17 01:17:01;;;;;;;;;;;;;;;;;;1910997;28;7418;-67
2022/03/17 01:17:59;;;;;;;;;;;;;;;;;;1912081;28;7006;-66
2022/03/17 01:18:56;;;;;;;;;;;;;;;;;;1910994;28;7017;-66
2022/03/17 01:19:53;;;;;;;;;;;;;;;;;;1911262;28;7013;-65
2022/03/17 01:20:51;;;;;;;;;;;;;;;;;;1911228;28;7192;-65
2022/03/17 01:21:49;;;;;;;;;;;;;;;;;;1909334;28;8107;-66
2022/03/17 01:22:47;;;;;;;;;;;;;;;;;;1911173;28;7048;-66
2022/03/17 01:23:44;;;;;;;;;;;;;;;;;;1911316;28;7097;-65
2022/03/17 01:24:42;;;;;;;;;;;;;;;;;;1911876;28;7029;-66
2022/03/17 01:25:40;;;;;;;;;;;;;;;;;;1909482;28;7089;-67
2022/03/17 01:26:37;;;;;;;;;;;;;;;;;;1909049;28;7030;-66
2022/03/17 01:27:34;;;;;;;;;;;;;;;;;;1910824;28;7100;-65
2022/03/17 01:28:32;;;;;;;;;;;;;;;;;;1911347;28;7092;-65
2022/03/17 01:29:29;;;;;;;;;;;;;;;;;;1910926;28;7100;-65
2022/03/17 01:30:27;;;;;;;;;;;;;;;;;;1911441;28;7308;-67
2022/03/17 01:31:24;;;;;;;;;;;;;;;;;;1911748;28;7045;-64
2022/03/17 01:32:22;;;;;;;;;;;;;;;;;;1911548;28;7009;-63
2022/03/17 01:33:19;;;;;;;;;;;;;;;;;;1910961;28;7088;-67
2022/03/17 01:34:17;;;;;;;;;;;;;;;;;;1909778;28;7080;-67
2022/03/17 01:35:15;;;;;;;;;;;;;;;;;;1903107;28;7025;-66
2022/03/17 01:36:12;;;;;;;;;;;;;;;;;;1902960;28;7129;-65
2022/03/17 01:37:10;;;;;;;;;;;;;;;;;;1910174;28;7013;-65
2022/03/17 01:38:07;;;;;;;;;;;;;;;;;;1911772;28;7113;-66
2022/03/17 01:39:04;;;;;;;;;;;;;;;;;;1910837;28;7163;-65
2022/03/17 01:40:02;;;;;;;;;;;;;;;;;;1911427;28;7084;-64
2022/03/17 01:41:00;;;;;;;;;;;;;;;;;;1911501;28;7084;-63
2022/03/17 01:41:58;;;;;;;;;;;;;;;;;;1911148;28;7009;-65
2022/03/17 01:42:55;;;;;;;;;;;;;;;;;;1911302;28;7009;-66
2022/03/17 01:43:53;;;;;;;;;;;;;;;;;;1910800;28;8078;-65
2022/03/17 01:44:50;;;;;;;;;;;;;;;;;;1911549;28;7009;-65
2022/03/17 01:45:48;;;;;;;;;;;;;;;;;;1911072;28;7021;-65
2022/03/17 01:48:01;;;;;;;;;;;;;;;;;;1911266;28;7092;-65
2022/03/17 01:48:59;;;;;;;;;;;;;;;;;;1911531;28;7037;-66
2022/03/17 01:49:58;;;;;;;;;;;;;;;;;;1910505;28;7009;-67
2022/03/17 01:50:55;;;;;;;;;;;;;;;;;;1910978;28;7102;-67
2022/03/17 01:51:52;;;;;;;;;;;;;;;;;;1911243;28;7006;-64
2022/03/17 01:52:50;;;;;;;;;;;;;;;;;;1910893;28;7084;-65
2022/03/17 01:53:48;;;;;;;;;;;;;;;;;;1911512;28;7002;-66
2022/03/17 01:54:45;;;;;;;;;;;;;;;;;;1910932;28;8103;-66
2022/03/17 01:55:43;;;;;;;;;;;;;;;;;;1910896;28;7105;-67
2022/03/17 01:56:41;;;;;;;;;;;;;;;;;;1911293;28;8032;-66
2022/03/17 01:57:39;;;;;;;;;;;;;;;;;;1911889;28;7422;-64
2022/03/17 01:58:37;;;;;;;;;;;;;;;;;;1910199;28;7021;-66
2022/03/17 01:59:36;;;;;;;;;;;;;;;;;;1911297;28;7026;-65
2022/03/17 02:00:33;;;;;;;;;;;;;;;;;;1911949;28;7013;-67
2022/03/17 02:01:31;;;;;;;;;;;;;;;;;;1911485;28;8019;-64
2022/03/17 02:02:29;;;;;;;;;;;;;;;;;;1911020;28;7009;-65
2022/03/17 02:03:27;;;;;;;;;;;;;;;;;;1911146;28;7005;-67
2022/03/17 02:04:24;;;;;;;;;;;;;;;;;;1911297;28;7111;-65
2022/03/17 02:05:22;;;;;;;;;;;;;;;;;;1910527;28;7029;-66
2022/03/17 02:06:19;;;;;;;;;;;;;;;;;;1910895;28;7009;-66
2022/03/17 02:07:17;;;;;;;;;;;;;;;;;;1909312;28;7113;-64
2022/03/17 02:08:14;;;;;;;;;;;;;;;;;;1911476;28;7045;-66
2022/03/17 02:09:12;;;;;;;;;;;;;;;;;;1908542;28;7017;-66
2022/03/17 02:10:09;;;;;;;;;;;;;;;;;;1911160;28;8043;-65
2022/03/17 02:13:39;;;;;;;;;;;;;;;;;;1910662;28;7112;-66
2022/03/17 02:14:46;;;;;;;;;;;;;;;;;;1911001;28;7009;-66
2022/03/17 02:15:49;;;;;;;;;;;;;;;;;;1910601;28;7340;-65
2022/03/17 02:16:46;;;;;;;;;;;;;;;;;;1911056;28;7005;-65
2022/03/17 02:17:44;;;;;;;;;;;;;;;;;;1911074;28;7017;-66
2022/03/17 02:18:46;;;;;;;;;;;;;;;;;;1911370;28;7006;-66
2022/03/17 02:19:44;;;;;;;;;;;;;;;;;;1910694;28;9016;-65
2022/03/17 02:20:42;;;;;;;;;;;;;;;;;;1910943;28;7113;-65
2022/03/17 02:21:39;;;;;;;;;;;;;;;;;;1911485;28;7046;-65
2022/03/17 02:22:40;;;;;;;;;;;;;;;;;;1912484;28;7088;-65
2022/03/17 02:26:21;;;;;;;;;;;;;;;;;;1889699;28;7010;-65
2022/03/17 02:27:19;;;;;;;;;;;;;;;;;;1912791;28;7096;-66
2022/03/17 02:28:17;;;;;;;;;;;;;;;;;;1912472;28;7120;-63
2022/03/17 02:29:15;;;;;;;;;;;;;;;;;;1912482;28;7042;-65
2022/03/17 02:30:14;;;;;;;;;;;;;;;;;;1912197;28;7009;-65
2022/03/17 02:31:12;;;;;;;;;;;;;;;;;;1912585;28;7379;-64
2022/03/17 02:32:09;;;;;;;;;;;;;;;;;;1911105;28;7010;-65
2022/03/17 02:33:09;;;;;;;;;;;;;;;;;;1912478;28;7057;-64
2022/03/17 02:34:06;;;;;;;;;;;;;;;;;;1913341;28;7096;-65
2022/03/17 02:35:05;;;;;;;;;;;;;;;;;;1913100;28;7050;-66
2022/03/17 02:36:03;;;;;;;;;;;;;;;;;;1912579;28;7033;-63
2022/03/17 02:37:01;;;;;;;;;;;;;;;;;;1912284;28;7009;-66
2022/03/17 02:37:58;;;;;;;;;;;;;;;;;;1912257;28;7089;-66
2022/03/17 02:38:57;;;;;;;;;;;;;;;;;;1912024;28;7164;-65
2022/03/17 02:39:54;;;;;;;;;;;;;;;;;;1912096;28;7005;-63
2022/03/17 02:40:52;;;;;;;;;;;;;;;;;;1912600;28;7108;-65
2022/03/17 02:41:50;;;;;;;;;;;;;;;;;;1913230;28;7017;-65
2022/03/17 02:42:50;;;;;;;;;;;;;;;;;;1911924;28;7120;-65
2022/03/17 02:43:51;;;;;;;;;;;;;;;;;;1913285;28;7096;-65
2022/03/17 02:44:49;;;;;;;;;;;;;;;;;;1912226;28;7092;-67
2022/03/17 02:45:47;;;;;;;;;;;;;;;;;;1912360;28;7092;-66
2022/03/17 02:46:45;;;;;;;;;;;;;;;;;;1912623;28;7006;-66
2022/03/17 02:47:42;;;;;;;;;;;;;;;;;;1912342;28;7006;-66
2022/03/17 02:48:39;;;;;;;;;;;;;;;;;;1912451;28;7126;-64
2022/03/17 02:49:37;;;;;;;;;;;;;;;;;;1913425;28;7021;-67
2022/03/17 02:50:35;;;;;;;;;;;;;;;;;;1912601;28;7148;-65
2022/03/17 02:51:32;;;;;;;;;;;;;;;;;;1912734;28;7029;-65
2022/03/17 02:52:29;;;;;;;;;;;;;;;;;;1910823;28;8035;-65
2022/03/17 02:53:27;;;;;;;;;;;;;;;;;;1912231;28;7117;-65
2022/03/17 02:54:24;;;;;;;;;;;;;;;;;;1912548;28;7123;-64
2022/03/17 02:55:22;;;;;;;;;;;;;;;;;;1912308;28;7096;-66
2022/03/17 02:56:19;;;;;;;;;;;;;;;;;;1912785;28;7139;-66
2022/03/17 02:57:17;;;;;;;;;;;;;;;;;;1912255;28;8111;-65
2022/03/17 02:58:15;;;;;;;;;;;;;;;;;;1912117;28;7092;-64
2022/03/17 02:59:12;;;;;;;;;;;;;;;;;;1912181;28;7005;-63
2022/03/17 03:00:10;;;;;;;;;;;;;;;;;;1912290;28;7092;-62
2022/03/17 03:01:08;;;;;;;;;;;;;;;;;;1912176;28;7092;-66
2022/03/17 03:02:06;;;;;;;;;;;;;;;;;;1912342;28;7070;-64
2022/03/17 03:03:05;;;;;;;;;;;;;;;;;;1912562;28;7045;-65
2022/03/17 03:04:03;;;;;;;;;;;;;;;;;;1912656;28;7006;-65
2022/03/17 03:05:00;;;;;;;;;;;;;;;;;;1912566;28;7006;-66
2022/03/17 03:05:57;;;;;;;;;;;;;;;;;;1911986;28;7093;-65
2022/03/17 03:06:55;;;;;;;;;;;;;;;;;;1912273;28;7101;-66
2022/03/17 03:07:53;;;;;;;;;;;;;;;;;;1912073;28;7060;-64
2022/03/17 03:08:51;;;;;;;;;;;;;;;;;;1911407;28;7092;-65
2022/03/17 03:09:48;;;;;;;;;;;;;;;;;;1912617;28;7041;-65
2022/03/17 03:10:45;;;;;;;;;;;;;;;;;;1912578;28;8011;-65
2022/03/17 03:11:43;;;;;;;;;;;;;;;;;;1912265;28;7009;-66
2022/03/17 03:12:41;;;;;;;;;;;;;;;;;;1911371;28;7117;-65
2022/03/17 03:13:38;;;;;;;;;;;;;;;;;;1911613;28;7135;-65
2022/03/17 03:14:36;;;;;;;;;;;;;;;;;;1912362;28;7045;-65
2022/03/17 03:15:34;;;;;;;;;;;;;;;;;;1912296;28;7038;-64
2022/03/17 03:16:31;;;;;;;;;;;;;;;;;;1912393;28;7009;-65
2022/03/17 03:17:29;;;;;;;;;;;;;;;;;;1912471;28;7116;-66
2022/03/17 03:18:26;;;;;;;;;;;;;;;;;;1911959;28;8094;-65
2022/03/17 03:19:24;;;;;;;;;;;;;;;;;;1912412;28;7109;-65
2022/03/17 03:20:21;;;;;;;;;;;;;;;;;;1912005;28;7140;-65
2022/03/17 03:21:19;;;;;;;;;;;;;;;;;;1912066;28;7120;-65
2022/03/17 03:22:17;;;;;;;;;;;;;;;;;;1911832;28;7034;-66
2022/03/17 03:23:15;;;;;;;;;;;;;;;;;;1912170;28;8450;-65
2022/03/17 03:24:13;;;;;;;;;;;;;;;;;;1912508;28;7022;-64
2022/03/17 03:25:10;;;;;;;;;;;;;;;;;;1912159;28;7088;-65
2022/03/17 03:26:08;;;;;;;;;;;;;;;;;;1912289;28;7105;-65
2022/03/17 03:27:05;;;;;;;;;;;;;;;;;;1912368;28;7010;-65
2022/03/17 03:28:06;;;;;;;;;;;;;;;;;;1912030;28;7005;-66
2022/03/17 03:29:06;;;;;;;;;;;;;;;;;;1911891;28;7088;-65
2022/03/17 03:30:04;;;;;;;;;;;;;;;;;;1912304;28;7116;-66
2022/03/17 03:31:01;;;;;;;;;;;;;;;;;;1912277;28;7001;-64
2022/03/17 03:32:00;;;;;;;;;;;;;;;;;;1912250;28;7144;-65
2022/03/17 03:32:58;;;;;;;;;;;;;;;;;;1911820;28;7021;-65
2022/03/17 03:33:56;;;;;;;;;;;;;;;;;;1911936;28;7005;-66
2022/03/17 03:34:53;;;;;;;;;;;;;;;;;;1911973;28;7410;-64
2022/03/17 03:37:25;;;;;;;;;;;;;;;;;;1911959;28;7013;-66
2022/03/17 03:38:23;;;;;;;;;;;;;;;;;;1912589;28;7021;-65
2022/03/17 03:39:20;;;;;;;;;;;;;;;;;;1911768;28;7005;-66
2022/03/17 03:40:18;;;;;;;;;;;;;;;;;;1912186;28;7010;-66
2022/03/17 03:41:15;;;;;;;;;;;;;;;;;;1911905;28;7092;-67
2022/03/17 03:42:13;;;;;;;;;;;;;;;;;;1911775;28;8099;-66
2022/03/17 03:43:10;;;;;;;;;;;;;;;;;;1912243;28;7113;-66
2022/03/17 03:44:08;;;;;;;;;;;;;;;;;;1911876;28;7034;-67
2022/03/17 03:45:06;;;;;;;;;;;;;;;;;;1910373;28;7092;-65
2022/03/17 03:46:03;;;;;;;;;;;;;;;;;;1911254;28;7021;-65
2022/03/17 03:47:01;;;;;;;;;;;;;;;;;;1910936;28;7605;-66
2022/03/17 03:47:58;;;;;;;;;;;;;;;;;;1911873;28;7092;-66
2022/03/17 03:48:55;;;;;;;;;;;;;;;;;;1912182;28;7021;-65
2022/03/17 03:49:53;;;;;;;;;;;;;;;;;;1912339;28;7092;-64
2022/03/17 03:50:50;;;;;;;;;;;;;;;;;;1911373;28;7013;-65
2022/03/17 03:51:48;;;;;;;;;;;;;;;;;;1911795;28;7113;-66
2022/03/17 03:52:45;;;;;;;;;;;;;;;;;;1910325;28;7021;-66
2022/03/17 03:54:58;;;;;;;;;;;;;;;;;;1910918;28;7116;-65
2022/03/17 03:55:56;;;;;;;;;;;;;;;;;;1910819;28;7148;-66
2022/03/17 03:56:55;;;;;;;;;;;;;;;;;;1912093;28;7010;-64
2022/03/17 03:57:53;;;;;;;;;;;;;;;;;;1911727;28;7009;-64
2022/03/17 03:58:50;;;;;;;;;;;;;;;;;;1912362;28;7026;-64
2022/03/17 03:59:48;;;;;;;;;;;;;;;;;;1910185;28;7092;-65
2022/03/17 04:00:45;;;;;;;;;;;;;;;;;;1910640;28;7114;-65
2022/03/17 04:01:43;;;;;;;;;;;;;;;;;;1911690;28;7006;-64
2022/03/17 04:02:41;;;;;;;;;;;;;;;;;;1911359;28;7005;-66
2022/03/17 04:03:44;;;;;;;;;;;;;;;;;;1912028;28;7005;-64
2022/03/17 04:04:42;;;;;;;;;;;;;;;;;;1912039;28;7006;-67
2022/03/17 04:05:40;;;;;;;;;;;;;;;;;;1911999;28;7009;-64
2022/03/17 04:06:42;;;;;;;;;;;;;;;;;;1911822;28;7021;-66
2022/03/17 04:07:39;;;;;;;;;;;;;;;;;;1911562;28;7009;-65
2022/03/17 04:08:36;;;;;;;;;;;;;;;;;;1910938;28;7727;-65
2022/03/17 04:09:35;;;;;;;;;;;;;;;;;;1910285;28;7010;-65
2022/03/17 04:10:33;;;;;;;;;;;;;;;;;;1911902;28;7009;-65
2022/03/17 04:11:30;;;;;;;;;;;;;;;;;;1911653;28;7021;-65
2022/03/17 04:12:27;;;;;;;;;;;;;;;;;;1912265;28;7557;-66
2022/03/17 04:13:25;;;;;;;;;;;;;;;;;;1910953;28;7360;-65
2022/03/17 04:14:23;;;;;;;;;;;;;;;;;;1911925;28;7042;-65
2022/03/17 04:15:20;;;;;;;;;;;;;;;;;;1911675;28;7009;-65
2022/03/17 04:16:17;;;;;;;;;;;;;;;;;;1911718;28;7127;-67
2022/03/17 04:17:15;;;;;;;;;;;;;;;;;;1911890;28;8043;-65
2022/03/17 04:18:12;;;;;;;;;;;;;;;;;;1911535;28;7025;-66
2022/03/17 04:19:10;;;;;;;;;;;;;;;;;;1911850;28;7586;-64
2022/03/17 04:20:09;;;;;;;;;;;;;;;;;;1911917;28;7009;-65
2022/03/17 04:21:06;;;;;;;;;;;;;;;;;;1911345;28;7474;-65
2022/03/17 04:22:04;;;;;;;;;;;;;;;;;;1911347;28;7009;-65
2022/03/17 04:23:01;;;;;;;;;;;;;;;;;;1911603;28;7096;-66
2022/03/17 04:23:59;;;;;;;;;;;;;;;;;;1911836;28;7005;-66
2022/03/17 04:24:57;;;;;;;;;;;;;;;;;;1912032;28;7037;-64
2022/03/17 04:25:54;;;;;;;;;;;;;;;;;;1911442;28;7817;-65
2022/03/17 04:26:52;;;;;;;;;;;;;;;;;;1910690;28;7038;-66
2022/03/17 04:27:50;;;;;;;;;;;;;;;;;;1912228;28;7088;-65
2022/03/17 04:28:47;;;;;;;;;;;;;;;;;;1911356;28;8036;-66
2022/03/17 04:29:45;;;;;;;;;;;;;;;;;;1911471;28;7120;-65
2022/03/17 04:30:42;;;;;;;;;;;;;;;;;;1911092;28;8654;-65
2022/03/17 04:31:42;;;;;;;;;;;;;;;;;;1911713;28;7114;-66
2022/03/17 04:32:40;;;;;;;;;;;;;;;;;;1911552;28;7194;-64
2022/03/17 04:33:38;;;;;;;;;;;;;;;;;;1911371;28;7009;-66
2022/03/17 04:34:35;;;;;;;;;;;;;;;;;;1911161;28;7013;-64
2022/03/17 04:35:32;;;;;;;;;;;;;;;;;;1910549;28;7009;-65
2022/03/17 04:36:32;;;;;;;;;;;;;;;;;;1911674;28;7054;-65
2022/03/17 04:37:30;;;;;;;;;;;;;;;;;;1911532;28;7009;-68
2022/03/17 04:38:28;;;;;;;;;;;;;;;;;;1911375;28;7006;-66
2022/03/17 04:39:26;;;;;;;;;;;;;;;;;;1911887;28;7140;-67
2022/03/17 04:40:23;;;;;;;;;;;;;;;;;;1911762;28;7005;-67
2022/03/17 04:41:21;;;;;;;;;;;;;;;;;;1911830;28;7006;-67
2022/03/17 04:42:18;;;;;;;;;;;;;;;;;;1912154;28;7360;-67
2022/03/17 04:43:19;;;;;;;;;;;;;;;;;;1911429;28;7002;-66
2022/03/17 04:44:17;;;;;;;;;;;;;;;;;;1910202;28;7022;-66
2022/03/17 04:45:14;;;;;;;;;;;;;;;;;;1910104;28;7116;-64
2022/03/17 04:46:12;;;;;;;;;;;;;;;;;;1911240;28;7150;-67
2022/03/17 04:47:09;;;;;;;;;;;;;;;;;;1911286;28;7025;-65
2022/03/17 04:48:07;;;;;;;;;;;;;;;;;;1911640;28;7096;-65
2022/03/17 04:49:05;;;;;;;;;;;;;;;;;;1912232;28;7109;-66
2022/03/17 04:50:04;;;;;;;;;;;;;;;;;;1911349;28;7335;-67
2022/03/17 04:51:02;;;;;;;;;;;;;;;;;;1911029;28;7042;-64
2022/03/17 04:51:59;;;;;;;;;;;;;;;;;;1911572;28;7104;-65
2022/03/17 04:54:32;;;;;;;;;;;;;;;;;;1894756;28;8120;-67
2022/03/17 04:55:30;;;;;;;;;;;;;;;;;;1895364;28;7022;-67
2022/03/17 04:56:27;;;;;;;;;;;;;;;;;;1887971;28;8994;-65
2022/03/17 04:57:26;;;;;;;;;;;;;;;;;;1888070;28;7125;-65
2022/03/17 04:58:23;;;;;;;;;;;;;;;;;;1888396;28;7033;-65
2022/03/17 04:59:21;;;;;;;;;;;;;;;;;;1887942;28;7013;-66
2022/03/17 05:00:19;;;;;;;;;;;;;;;;;;1901054;28;7025;-65
2022/03/17 05:01:16;;;;;;;;;;;;;;;;;;1910849;28;7157;-67
2022/03/17 05:02:14;;;;;;;;;;;;;;;;;;1911420;28;7030;-65
2022/03/17 05:03:11;;;;;;;;;;;;;;;;;;1911560;28;7113;-65
2022/03/17 05:04:09;;;;;;;;;;;;;;;;;;1911495;28;7009;-66
2022/03/17 05:05:06;;;;;;;;;;;;;;;;;;1911440;28;7006;-65
2022/03/17 05:06:04;;;;;;;;;;;;;;;;;;1911904;28;7013;-66
2022/03/17 05:07:02;;;;;;;;;;;;;;;;;;1911648;28;7117;-65
2022/03/17 05:07:59;;;;;;;;;;;;;;;;;;1912186;28;7147;-65
2022/03/17 05:08:59;;;;;;;;;;;;;;;;;;1911019;28;7005;-67
2022/03/17 05:09:57;;;;;;;;;;;;;;;;;;1910105;28;7092;-64
2022/03/17 05:10:54;;;;;;;;;;;;;;;;;;1910303;28;7014;-64
2022/03/17 05:11:53;;;;;;;;;;;;;;;;;;1911471;28;7009;-65
2022/03/17 05:12:51;;;;;;;;;;;;;;;;;;1911463;28;7009;-65
2022/03/17 05:13:48;;;;;;;;;;;;;;;;;;1910675;28;7005;-66
2022/03/17 05:14:46;;;;;;;;;;;;;;;;;;1912201;28;8369;-65
2022/03/17 05:15:44;;;;;;;;;;;;;;;;;;1909803;28;7152;-65
2022/03/17 05:16:41;;;;;;;;;;;;;;;;;;1910796;28;7096;-66
2022/03/17 05:17:40;;;;;;;;;;;;;;;;;;1911435;28;8123;-67
2022/03/17 05:18:38;;;;;;;;;;;;;;;;;;1911305;28;7037;-65
2022/03/17 05:19:35;;;;;;;;;;;;;;;;;;1911608;28;7104;-66
2022/03/17 05:20:36;;;;;;;;;;;;;;;;;;1911092;28;7715;-66
2022/03/17 05:21:34;;;;;;;;;;;;;;;;;;1911999;28;8022;-65
2022/03/17 05:22:31;;;;;;;;;;;;;;;;;;1912109;28;7236;-65
2022/03/17 05:23:31;;;;;;;;;;;;;;;;;;1911301;28;7009;-67
2022/03/17 05:24:28;;;;;;;;;;;;;;;;;;1911081;28;7006;-65
2022/03/17 05:25:26;;;;;;;;;;;;;;;;;;1909989;28;7096;-65
2022/03/17 05:26:23;;;;;;;;;;;;;;;;;;1911107;28;7017;-66
2022/03/17 05:27:21;;;;;;;;;;;;;;;;;;1911365;28;7384;-65
2022/03/17 05:28:18;;;;;;;;;;;;;;;;;;1911832;28;7108;-66
2022/03/17 05:29:16;;;;;;;;;;;;;;;;;;1912129;28;7009;-66
2022/03/17 05:30:15;;;;;;;;;;;;;;;;;;1911327;28;7117;-65
2022/03/17 05:31:12;;;;;;;;;;;;;;;;;;1901714;28;7446;-66
2022/03/17 05:32:10;;;;;;;;;;;;;;;;;;1903459;28;7304;-65
2022/03/17 05:33:07;;;;;;;;;;;;;;;;;;1910525;28;8113;-67
2022/03/17 05:34:05;;;;;;;;;;;;;;;;;;1911305;28;7408;-67
2022/03/17 05:35:02;;;;;;;;;;;;;;;;;;1911414;28;7037;-65
2022/03/17 05:36:00;;;;;;;;;;;;;;;;;;1911903;28;7009;-67
2022/03/17 05:36:57;;;;;;;;;;;;;;;;;;1911215;28;7033;-65
2022/03/17 05:37:55;;;;;;;;;;;;;;;;;;1911254;28;7010;-66
2022/03/17 05:38:52;;;;;;;;;;;;;;;;;;1911097;28;8470;-66
2022/03/17 05:39:50;;;;;;;;;;;;;;;;;;1910928;28;7104;-66
2022/03/17 05:40:47;;;;;;;;;;;;;;;;;;1911436;28;7092;-66
2022/03/17 05:41:45;;;;;;;;;;;;;;;;;;1911362;28;7029;-64
2022/03/17 05:42:43;;;;;;;;;;;;;;;;;;1911991;28;7013;-65
2022/03/17 05:43:41;;;;;;;;;;;;;;;;;;1911417;28;7046;-66
2022/03/17 05:44:38;;;;;;;;;;;;;;;;;;1910162;28;7284;-65
2022/03/17 05:45:36;;;;;;;;;;;;;;;;;;1911616;28;7033;-67
2022/03/17 05:46:34;;;;;;;;;;;;;;;;;;1903084;28;7097;-67
2022/03/17 05:47:39;;;;;;;;;;;;;;;;;;1903746;28;8041;-65
2022/03/17 05:48:36;;;;;;;;;;;;;;;;;;1911296;28;7327;-64
2022/03/17 05:49:34;;;;;;;;;;;;;;;;;;1911395;28;7005;-66
2022/03/17 05:50:37;;;;;;;;;;;;;;;;;;1911692;28;7151;-67
2022/03/17 05:51:35;;;;;;;;;;;;;;;;;;1912708;28;7152;-65
2022/03/17 05:52:32;;;;;;;;;;;;;;;;;;1911315;28;7092;-67
2022/03/17 05:53:30;;;;;;;;;;;;;;;;;;1911587;28;7096;-64
2022/03/17 05:54:27;;;;;;;;;;;;;;;;;;1911163;28;7025;-66
2022/03/17 05:55:25;;;;;;;;;;;;;;;;;;1911069;28;7009;-66
2022/03/17 05:56:23;;;;;;;;;;;;;;;;;;1911715;28;7050;-64
2022/03/17 05:57:20;;;;;;;;;;;;;;;;;;1912738;28;7318;-66
2022/03/17 05:58:18;;;;;;;;;;;;;;;;;;1913587;28;8114;-65
2022/03/17 05:59:15;;;;;;;;;;;;;;;;;;1912695;28;7029;-64
2022/03/17 06:00:14;;;;;;;;;;;;;;;;;;1912712;28;8024;-65
2022/03/17 06:01:12;;;;;;;;;;;;;;;;;;1912603;28;7029;-64
2022/03/17 06:02:09;;;;;;;;;;;;;;;;;;1912833;28;7009;-67
2022/03/17 06:03:13;;;;;;;;;;;;;;;;;;1912603;28;7010;-63
2022/03/17 06:04:10;;;;;;;;;;;;;;;;;;1912885;28;7005;-66
2022/03/17 06:05:08;;;;;;;;;;;;;;;;;;1913421;28;7001;-64
2022/03/17 06:06:06;;;;;;;;;;;;;;;;;;1913596;28;7009;-64
2022/03/17 06:07:03;;;;;;;;;;;;;;;;;;1910812;28;7126;-64
2022/03/17 06:08:01;;;;;;;;;;;;;;;;;;1904510;28;8023;-65
2022/03/17 06:08:59;;;;;;;;;;;;;;;;;;1904428;28;7005;-64
2022/03/17 06:09:57;;;;;;;;;;;;;;;;;;1910332;28;7014;-66
2022/03/17 06:10:54;;;;;;;;;;;;;;;;;;1912652;28;7009;-65
2022/03/17 06:11:53;;;;;;;;;;;;;;;;;;1913043;28;7002;-65
2022/03/17 06:12:53;;;;;;;;;;;;;;;;;;1912191;28;7133;-65
2022/03/17 06:13:52;;;;;;;;;;;;;;;;;;1912258;28;7093;-66
2022/03/17 06:14:50;;;;;;;;;;;;;;;;;;1912859;28;8039;-65
2022/03/17 06:15:47;;;;;;;;;;;;;;;;;;1912912;28;7034;-66
2022/03/17 06:16:45;;;;;;;;;;;;;;;;;;1910954;28;7013;-67
2022/03/17 06:17:44;;;;;;;;;;;;;;;;;;1911232;28;7092;-64
2022/03/17 06:18:42;;;;;;;;;;;;;;;;;;1912651;28;7283;-67
2022/03/17 06:19:40;;;;;;;;;;;;;;;;;;1913430;28;7092;-64
2022/03/17 06:20:38;;;;;;;;;;;;;;;;;;1913325;28;7080;-66
2022/03/17 06:21:35;;;;;;;;;;;;;;;;;;1913038;28;7143;-65
2022/03/17 06:22:32;;;;;;;;;;;;;;;;;;1911461;28;7013;-67
2022/03/17 06:23:30;;;;;;;;;;;;;;;;;;1913007;28;7101;-67
2022/03/17 06:24:27;;;;;;;;;;;;;;;;;;1913136;28;7311;-65
2022/03/17 06:25:26;;;;;;;;;;;;;;;;;;1912473;28;7006;-67
2022/03/17 06:26:23;;;;;;;;;;;;;;;;;;1912948;28;7092;-67
2022/03/17 06:27:21;;;;;;;;;;;;;;;;;;1912957;28;7345;-65
2022/03/17 06:28:18;;;;;;;;;;;;;;;;;;1912855;28;8069;-65
2022/03/17 06:29:16;;;;;;;;;;;;;;;;;;1913209;28;7124;-64
2022/03/17 06:30:15;;;;;;;;;;;;;;;;;;1911634;28;7109;-66
2022/03/17 06:31:13;;;;;;;;;;;;;;;;;;1912657;28;7021;-67
2022/03/17 06:32:14;;;;;;;;;;;;;;;;;;1912985;28;8636;-66
2022/03/17 06:33:11;;;;;;;;;;;;;;;;;;1911532;28;7009;-65
2022/03/17 06:34:09;;;;;;;;;;;;;;;;;;1913428;28;7096;-64
2022/03/17 06:35:10;;;;;;;;;;;;;;;;;;1912822;28;7245;-66
2022/03/17 06:36:08;;;;;;;;;;;;;;;;;;1911276;28;7037;-64
2022/03/17 06:37:05;;;;;;;;;;;;;;;;;;1911507;28;7014;-66
2022/03/17 06:38:04;;;;;;;;;;;;;;;;;;1912572;28;7005;-65
2022/03/17 06:39:02;;;;;;;;;;;;;;;;;;1913153;28;7009;-66
2022/03/17 06:39:59;;;;;;;;;;;;;;;;;;1912683;28;7005;-64
2022/03/17 06:40:56;;;;;;;;;;;;;;;;;;1913248;28;7006;-66
2022/03/17 06:41:54;;;;;;;;;;;;;;;;;;1914060;28;7029;-63
2022/03/17 06:42:52;;;;;;;;;;;;;;;;;;1912676;28;7009;-65
2022/03/17 06:43:49;;;;;;;;;;;;;;;;;;1912875;28;8123;-68
2022/03/17 06:44:47;;;;;;;;;;;;;;;;;;1912662;28;7009;-67
2022/03/17 06:45:44;;;;;;;;;;;;;;;;;;1912824;28;7042;-65
2022/03/17 06:46:42;;;;;;;;;;;;;;;;;;1912954;28;7154;-67
2022/03/17 06:47:39;;;;;;;;;;;;;;;;;;1913525;28;7025;-65
2022/03/17 06:48:37;;;;;;;;;;;;;;;;;;1912550;28;7451;-64
2022/03/17 06:49:34;;;;;;;;;;;;;;;;;;1913210;28;8046;-65
2022/03/17 06:50:32;;;;;;;;;;;;;;;;;;1911366;28;7285;-66
2022/03/17 06:51:29;;;;;;;;;;;;;;;;;;1912748;28;7096;-65
2022/03/17 06:52:26;;;;;;;;;;;;;;;;;;1912981;28;7021;-64
2022/03/17 06:53:24;;;;;;;;;;;;;;;;;;1913077;28;7046;-64
2022/03/17 06:54:21;;;;;;;;;;;;;;;;;;1913191;28;7029;-66